Ault, Minnesota
Current Conditions -  °F | °C
As of 10:34 PM on Saturday 25 Oct 2014 (Local Time) from KTWM Reporting Station
Clear Clear  
Wind Chill:   Ceiling: Unl
Heat Index:   Visibility: 10mi
Dew Point: -9°   Wind: 7mph
Humidity: 31%   Direction: 260°W
Pressure: 29.94"   Gusts: NA
Location:  47.3998°N, 91.9141°W
Report Text: KTWM 260334Z AUTO 26006KT 10SM CLR 07/M09 A2994 RMK AO2
Loading
Personal Weather Stations






























Interactive Weather Map
Tropical Storm Tracking
New forecast layout! Learn more

10-Day Weather Forecast

Advertisements
Track Severe Weather on mobile